Time;durP1;ratioP1;P1;durP2;ratioP2;P2;SDS_P1;SDS_P2;PMS_P1;PMS_P2;Temp;Humidity;BMP_temperature;BMP_pressure;BME280_temperature;BME280_humidity;BME280_pressure;Samples;Min_cycle;Max_cycle;Signal;HPM_P1;HPM_P2
2022/12/08 00:01:33;;;;;;;5.82;1.20;;;4.00;99.90;;;;;;5073317;28;20269;-76
2022/12/08 00:04:01;;;;;;;8.07;1.17;;;4.00;99.90;;;;;;5069715;28;20194;-76
2022/12/08 00:09:22;;;;;;;2.78;1.00;;;4.00;99.90;;;;;;5069578;28;20260;-75
2022/12/08 00:11:57;;;;;;;5.88;1.70;;;4.00;99.90;;;;;;5062891;28;20181;-75
2022/12/08 00:14:26;;;;;;;6.07;1.60;;;4.00;99.90;;;;;;5060857;28;20178;-76
2022/12/08 00:16:53;;;;;;;8.90;2.65;;;3.90;99.90;;;;;;5060057;28;20170;-82
2022/12/08 00:19:19;;;;;;;7.47;2.33;;;3.90;99.90;;;;;;5058007;28;20250;-76
2022/12/08 00:21:46;;;;;;;4.55;2.17;;;3.90;99.90;;;;;;5067663;28;20711;-75
2022/12/08 00:24:12;;;;;;;9.93;2.58;;;4.00;99.90;;;;;;5067595;28;20182;-76
2022/12/08 00:26:38;;;;;;;3.67;1.80;;;4.00;99.90;;;;;;5067966;28;20194;-84
2022/12/08 00:29:04;;;;;;;7.10;1.90;;;4.00;99.90;;;;;;5063982;28;20211;-75
2022/12/08 00:31:30;;;;;;;2.58;1.33;;;4.00;99.90;;;;;;5065991;28;20178;-75
2022/12/08 00:33:57;;;;;;;8.25;1.77;;;4.00;99.90;;;;;;5064248;28;20558;-75
2022/12/08 00:36:23;;;;;;;4.20;1.20;;;4.00;99.90;;;;;;5061397;28;20278;-76
2022/12/08 00:38:48;;;;;;;2.55;1.10;;;4.00;99.90;;;;;;5069590;28;20276;-75
2022/12/08 00:41:17;;;;;;;3.92;1.45;;;4.00;99.90;;;;;;5072716;28;20576;-75
2022/12/08 00:43:44;;;;;;;6.28;1.73;;;4.00;99.90;;;;;;5073658;28;20250;-75
2022/12/08 00:46:10;;;;;;;5.22;1.42;;;4.00;99.90;;;;;;5075647;28;20190;-76
2022/12/08 00:48:36;;;;;;;4.80;1.67;;;4.00;99.90;;;;;;5061842;28;20268;-75
2022/12/08 00:51:02;;;;;;;3.78;1.70;;;4.10;99.90;;;;;;5073552;28;20205;-75
2022/12/08 00:53:30;;;;;;;5.82;1.63;;;4.10;99.90;;;;;;5075086;28;20709;-75
2022/12/08 00:55:55;;;;;;;5.13;2.10;;;4.10;99.90;;;;;;5072652;28;20645;-75
2022/12/08 00:58:21;;;;;;;8.05;2.35;;;4.10;99.90;;;;;;5069029;28;20191;-76
2022/12/08 01:00:47;;;;;;;8.73;2.08;;;4.10;99.90;;;;;;5073636;28;20185;-75
2022/12/08 01:03:12;;;;;;;10.57;1.80;;;4.10;99.90;;;;;;5075326;28;20662;-76
2022/12/08 01:05:38;;;;;;;7.10;1.98;;;4.00;99.90;;;;;;5078649;28;21465;-75
2022/12/08 01:08:05;;;;;;;5.65;1.92;;;4.00;99.90;;;;;;5057961;28;20214;-81
2022/12/08 01:10:33;;;;;;;5.90;2.10;;;4.00;99.90;;;;;;5074309;28;20190;-76
2022/12/08 01:12:59;;;;;;;4.07;1.55;;;4.00;99.90;;;;;;5058601;28;20565;-76
2022/12/08 01:15:25;;;;;;;8.13;1.90;;;4.00;99.90;;;;;;5074038;28;20174;-75
2022/12/08 01:17:50;;;;;;;9.07;2.13;;;4.00;99.90;;;;;;5074124;28;20232;-74
2022/12/08 01:20:16;;;;;;;6.85;1.95;;;4.00;99.90;;;;;;5072236;28;20226;-74
2022/12/08 01:22:42;;;;;;;8.60;1.92;;;4.00;99.90;;;;;;5073032;28;20265;-74
2022/12/08 01:25:08;;;;;;;6.25;1.60;;;4.00;99.90;;;;;;5072858;28;20178;-74
2022/12/08 01:27:33;;;;;;;9.63;1.83;;;3.90;99.90;;;;;;5067539;28;20193;-80
2022/12/08 01:29:59;;;;;;;4.90;1.75;;;3.90;99.90;;;;;;5057287;28;20222;-74
2022/12/08 01:32:25;;;;;;;4.78;1.80;;;3.90;99.90;;;;;;5066399;28;20186;-74
2022/12/08 01:34:51;;;;;;;4.57;1.60;;;3.90;99.90;;;;;;5076358;28;20264;-77
2022/12/08 01:37:17;;;;;;;6.97;1.80;;;3.90;99.90;;;;;;5074615;28;20265;-74
2022/12/08 01:39:42;;;;;;;9.75;1.88;;;3.90;99.90;;;;;;5066958;28;20278;-74
2022/12/08 01:42:20;;;;;;;5.18;1.65;;;3.90;99.90;;;;;;5075803;28;20178;-74
2022/12/08 01:45:02;;;;;;;5.55;1.63;;;3.90;99.90;;;;;;5073949;28;20268;-74
2022/12/08 01:47:38;;;;;;;7.85;1.95;;;4.00;99.90;;;;;;5074200;28;20174;-75
2022/12/08 01:50:07;;;;;;;4.43;1.52;;;4.00;99.90;;;;;;5072187;28;20201;-74
2022/12/08 01:52:36;;;;;;;6.70;1.60;;;4.00;99.90;;;;;;5066849;28;20275;-74
2022/12/08 01:55:19;;;;;;;8.15;1.65;;;4.00;99.90;;;;;;5073255;28;20237;-76
2022/12/08 01:57:48;;;;;;;4.75;1.60;;;4.00;99.90;;;;;;5075214;28;20224;-74
2022/12/08 02:00:17;;;;;;;5.65;1.50;;;4.00;99.90;;;;;;5061099;28;20182;-74
2022/12/08 02:03:01;;;;;;;7.00;1.42;;;4.00;99.90;;;;;;5072021;28;20186;-74
2022/12/08 02:05:30;;;;;;;3.88;1.20;;;4.00;99.90;;;;;;5072784;28;20232;-74
2022/12/08 02:07:59;;;;;;;2.10;0.82;;;4.00;99.90;;;;;;5075156;28;20179;-74
2022/12/08 02:10:28;;;;;;;3.67;1.05;;;4.00;99.90;;;;;;5071921;28;20194;-74
2022/12/08 02:12:56;;;;;;;2.45;1.00;;;4.00;99.90;;;;;;5059212;28;20178;-75
2022/12/08 02:15:41;;;;;;;2.45;0.95;;;4.00;99.90;;;;;;5059979;28;20582;-74
2022/12/08 02:18:34;;;;;;;9.45;0.88;;;4.00;99.90;;;;;;5072661;28;20551;-74
2022/12/08 02:21:12;;;;;;;3.97;0.82;;;4.00;99.90;;;;;;5069793;28;20194;-75
2022/12/08 02:24:11;;;;;;;5.93;1.02;;;4.10;99.90;;;;;;5061051;28;20233;-74
2022/12/08 02:26:45;;;;;;;3.47;0.60;;;4.10;99.90;;;;;;5074506;28;20195;-74
2022/12/08 02:29:50;;;;;;;5.68;0.90;;;4.00;99.90;;;;;;5072376;28;20617;-74
2022/12/08 02:32:39;;;;;;;1.60;0.80;;;4.00;99.90;;;;;;5018273;28;20633;-74
2022/12/08 02:35:13;;;;;;;3.63;0.65;;;4.00;99.90;;;;;;5069367;28;20270;-74
2022/12/08 02:37:52;;;;;;;1.38;0.75;;;4.00;99.90;;;;;;5058152;28;20182;-74
2022/12/08 02:40:36;;;;;;;1.25;0.60;;;4.00;99.90;;;;;;5071829;28;20200;-75
2022/12/08 02:43:26;;;;;;;2.25;1.00;;;4.00;99.90;;;;;;5065302;28;20289;-76
2022/12/08 02:46:02;;;;;;;5.30;1.20;;;4.00;99.90;;;;;;5061814;28;20174;-74
2022/12/08 02:48:28;;;;;;;2.30;0.90;;;4.00;99.90;;;;;;5068309;28;21050;-74
2022/12/08 02:50:54;;;;;;;2.55;0.88;;;3.90;99.90;;;;;;5072800;28;20175;-74
2022/12/08 02:53:20;;;;;;;2.67;0.80;;;3.90;99.90;;;;;;5066437;28;20185;-78
2022/12/08 02:56:24;;;;;;;1.40;0.90;;;3.90;99.90;;;;;;5057218;28;20558;-75
2022/12/08 02:59:08;;;;;;;3.25;1.23;;;3.90;99.90;;;;;;5057581;28;20182;-74
2022/12/08 03:01:48;;;;;;;3.20;0.95;;;3.90;99.90;;;;;;5062551;28;20178;-74
2022/12/08 03:04:25;;;;;;;3.28;1.30;;;3.80;99.90;;;;;;5055492;28;20172;-75
2022/12/08 03:07:03;;;;;;;1.88;1.00;;;3.80;99.90;;;;;;5059050;28;20178;-75
2022/12/08 03:09:43;;;;;;;2.03;1.05;;;3.80;99.90;;;;;;5071804;28;20237;-74
2022/12/08 03:12:24;;;;;;;1.27;0.93;;;3.80;99.90;;;;;;5073639;28;20296;-74
2022/12/08 03:14:54;;;;;;;2.65;1.35;;;3.80;99.90;;;;;;5064238;28;20177;-77
2022/12/08 03:17:24;;;;;;;3.50;1.17;;;3.80;99.90;;;;;;5073766;28;20167;-76
2022/12/08 03:19:53;;;;;;;3.00;1.17;;;3.80;99.90;;;;;;5069013;28;20648;-75
2022/12/08 03:22:23;;;;;;;1.80;1.00;;;3.80;99.90;;;;;;5072487;28;20635;-74
2022/12/08 03:24:50;;;;;;;3.35;1.00;;;3.80;99.90;;;;;;5065373;28;20473;-75
2022/12/08 03:27:22;;;;;;;4.75;1.15;;;3.80;99.90;;;;;;5055455;28;20312;-75
2022/12/08 03:29:50;;;;;;;2.15;1.02;;;3.80;99.90;;;;;;5067569;28;20206;-75
2022/12/08 03:32:22;;;;;;;1.17;0.80;;;3.80;99.90;;;;;;5072349;28;20179;-74
2022/12/08 03:34:50;;;;;;;1.67;0.80;;;3.80;99.90;;;;;;5071261;28;20244;-77
2022/12/08 03:37:16;;;;;;;1.80;0.65;;;3.80;99.90;;;;;;5073815;28;20170;-74
2022/12/08 03:39:42;;;;;;;1.80;0.80;;;3.80;99.90;;;;;;5069897;28;20275;-74
2022/12/08 03:42:07;;;;;;;2.63;1.10;;;3.80;99.90;;;;;;5073394;28;20185;-74
2022/12/08 03:44:33;;;;;;;3.00;1.10;;;3.80;99.90;;;;;;5070811;28;20623;-77
2022/12/08 03:46:59;;;;;;;1.58;1.20;;;3.80;99.90;;;;;;5059321;28;20189;-81
2022/12/08 03:49:24;;;;;;;4.05;1.50;;;3.70;99.90;;;;;;5059134;28;20221;-75
2022/12/08 03:51:50;;;;;;;2.50;1.45;;;3.80;99.90;;;;;;5057148;28;20187;-75
2022/12/08 03:54:16;;;;;;;3.47;1.40;;;3.80;99.90;;;;;;5068235;28;20209;-75
2022/12/08 03:56:42;;;;;;;2.33;1.65;;;3.80;99.90;;;;;;5071643;28;20175;-74
2022/12/08 03:59:09;;;;;;;1.98;1.55;;;3.90;99.90;;;;;;5070709;28;20265;-75
2022/12/08 04:01:35;;;;;;;2.60;1.45;;;3.80;99.90;;;;;;5068466;28;20179;-76
2022/12/08 04:04:01;;;;;;;2.33;1.60;;;3.80;99.90;;;;;;5059279;28;20229;-74
2022/12/08 04:06:26;;;;;;;3.60;1.40;;;3.80;99.90;;;;;;5080581;28;20658;-77
2022/12/08 04:08:52;;;;;;;3.50;1.30;;;3.80;99.90;;;;;;5057158;28;20222;-74
2022/12/08 04:11:18;;;;;;;2.33;1.17;;;3.80;99.90;;;;;;5072931;28;20179;-74
2022/12/08 04:13:44;;;;;;;1.75;1.00;;;3.80;99.90;;;;;;5059223;28;20613;-74
2022/12/08 04:16:22;;;;;;;4.05;1.10;;;3.80;99.90;;;;;;5069093;28;20190;-75
2022/12/08 04:18:48;;;;;;;2.63;1.25;;;3.80;99.90;;;;;;5070427;28;20174;-75
2022/12/08 04:21:14;;;;;;;6.43;1.50;;;3.80;99.90;;;;;;5070654;28;20186;-75
2022/12/08 04:23:40;;;;;;;3.20;1.10;;;3.80;99.90;;;;;;5078102;28;20179;-77
2022/12/08 04:26:06;;;;;;;2.42;1.45;;;3.80;99.90;;;;;;5086417;28;20195;-75
2022/12/08 04:28:32;;;;;;;5.22;1.48;;;3.80;99.90;;;;;;5066906;28;20230;-74
2022/12/08 04:30:58;;;;;;;2.15;1.40;;;3.80;99.90;;;;;;5088066;28;20178;-75
2022/12/08 04:33:24;;;;;;;6.78;1.95;;;3.80;99.90;;;;;;5068436;28;20598;-75
2022/12/08 04:35:49;;;;;;;4.20;1.70;;;3.80;99.90;;;;;;5072594;28;20549;-75
2022/12/08 04:38:15;;;;;;;4.30;1.42;;;3.80;99.90;;;;;;5086517;28;20221;-75
2022/12/08 04:40:41;;;;;;;5.70;1.20;;;3.80;99.90;;;;;;5066370;28;20204;-74
2022/12/08 04:43:07;;;;;;;4.22;1.17;;;3.80;99.90;;;;;;5069946;28;20178;-75
2022/12/08 04:45:33;;;;;;;3.05;1.10;;;3.80;99.90;;;;;;5053373;28;20198;-75
2022/12/08 04:48:00;;;;;;;2.83;0.85;;;3.80;99.90;;;;;;5072101;28;20210;-75
2022/12/08 04:50:26;;;;;;;2.75;0.80;;;3.80;99.90;;;;;;5070067;28;20178;-75
2022/12/08 04:52:51;;;;;;;2.80;0.70;;;3.80;99.90;;;;;;5072269;28;20196;-75
2022/12/08 04:55:17;;;;;;;1.55;0.90;;;3.80;99.90;;;;;;5056605;28;20187;-76
2022/12/08 04:57:43;;;;;;;4.53;0.70;;;3.80;99.90;;;;;;5061538;28;20218;-75
2022/12/08 05:00:09;;;;;;;2.05;0.80;;;3.80;99.90;;;;;;5070795;28;20307;-75
2022/12/08 05:02:36;;;;;;;1.17;0.90;;;3.80;99.90;;;;;;5071220;28;20175;-74
2022/12/08 05:05:03;;;;;;;2.70;0.80;;;3.80;99.90;;;;;;5060410;28;20178;-80
2022/12/08 05:07:28;;;;;;;2.40;0.70;;;3.80;99.90;;;;;;5065923;28;20191;-75
2022/12/08 05:09:54;;;;;;;3.38;0.80;;;3.80;99.90;;;;;;5068492;28;20202;-75
2022/12/08 05:12:20;;;;;;;5.88;0.90;;;3.80;99.90;;;;;;5071038;28;20691;-74
2022/12/08 05:14:47;;;;;;;2.22;0.82;;;3.80;99.90;;;;;;5067531;28;20181;-75
2022/12/08 05:17:16;;;;;;;1.05;0.70;;;3.80;99.90;;;;;;5056514;28;20237;-75
2022/12/08 05:19:42;;;;;;;2.83;0.95;;;3.80;99.90;;;;;;5063584;28;20230;-74
2022/12/08 05:22:08;;;;;;;3.72;0.70;;;3.80;99.90;;;;;;5070863;28;20198;-74
2022/12/08 05:24:34;;;;;;;2.45;0.82;;;3.80;99.90;;;;;;5070386;28;20190;-74
2022/12/08 05:26:59;;;;;;;5.60;0.85;;;3.80;99.90;;;;;;5056425;28;20496;-74
2022/12/08 05:29:26;;;;;;;5.43;0.88;;;3.80;99.90;;;;;;5077886;28;20214;-74
2022/12/08 05:31:52;;;;;;;2.45;0.70;;;3.80;99.90;;;;;;5074850;28;20224;-74
2022/12/08 05:34:17;;;;;;;1.23;0.68;;;3.80;99.90;;;;;;5075359;28;20187;-74
2022/12/08 05:36:43;;;;;;;1.92;0.77;;;3.80;99.90;;;;;;5074747;28;20187;-75
2022/12/08 05:39:13;;;;;;;5.05;1.05;;;3.80;99.90;;;;;;5063049;28;20187;-77
2022/12/08 05:41:39;;;;;;;4.57;1.30;;;3.80;99.90;;;;;;5073604;28;20269;-78
2022/12/08 05:44:04;;;;;;;2.65;1.10;;;3.80;99.90;;;;;;5060712;28;20644;-75
2022/12/08 05:46:30;;;;;;;4.22;1.30;;;3.80;99.90;;;;;;5074122;28;20277;-74
2022/12/08 05:48:59;;;;;;;3.78;1.52;;;3.80;99.90;;;;;;5065788;28;20579;-75
2022/12/08 05:51:25;;;;;;;5.13;1.48;;;3.70;99.90;;;;;;5079257;28;20185;-75
2022/12/08 05:53:51;;;;;;;4.65;1.52;;;3.70;99.90;;;;;;5073863;28;20182;-74
2022/12/08 05:56:19;;;;;;;3.20;1.40;;;3.70;99.90;;;;;;5073688;28;20517;-76
2022/12/08 05:58:45;;;;;;;3.90;1.10;;;3.70;99.90;;;;;;5069345;28;20241;-75
2022/12/08 06:01:37;;;;;;;1.50;0.93;;;3.70;99.90;;;;;;5061623;28;20201;-80
2022/12/08 06:04:04;;;;;;;4.82;0.90;;;3.70;99.90;;;;;;5070695;28;20203;-75
2022/12/08 06:06:30;;;;;;;4.35;0.95;;;3.70;99.90;;;;;;5092424;28;20178;-75
2022/12/08 06:08:56;;;;;;;3.08;0.90;;;3.60;99.90;;;;;;5070695;28;20211;-75
2022/12/08 06:11:29;;;;;;;3.30;0.95;;;3.70;99.90;;;;;;5077355;28;20180;-75
2022/12/08 06:13:56;;;;;;;4.35;1.10;;;3.70;99.90;;;;;;5068112;28;20178;-76
2022/12/08 06:16:26;;;;;;;3.00;1.00;;;3.60;99.90;;;;;;5073949;28;20194;-76
2022/12/08 06:18:52;;;;;;;2.17;0.98;;;3.70;99.90;;;;;;5071006;28;20182;-76
2022/12/08 06:21:18;;;;;;;8.52;1.05;;;3.70;99.90;;;;;;5059159;28;20817;-75
2022/12/08 06:23:47;;;;;;;3.30;0.93;;;3.60;99.90;;;;;;5073339;28;20187;-75
2022/12/08 06:26:14;;;;;;;4.22;1.30;;;3.60;99.90;;;;;;5074964;28;20265;-76
2022/12/08 06:28:41;;;;;;;2.78;1.10;;;3.60;99.90;;;;;;5071167;28;20277;-75
2022/12/08 06:31:25;;;;;;;7.25;1.20;;;3.60;99.90;;;;;;5062731;28;20190;-77
2022/12/08 06:33:52;;;;;;;4.00;1.17;;;3.50;99.90;;;;;;5071087;28;20179;-75
2022/12/08 06:36:20;;;;;;;3.17;0.95;;;3.40;99.90;;;;;;5074445;28;20240;-75
2022/12/08 06:38:47;;;;;;;1.38;0.90;;;3.50;99.90;;;;;;5073010;28;20176;-76
2022/12/08 06:41:15;;;;;;;1.38;0.75;;;3.50;99.90;;;;;;5063588;28;20403;-77
2022/12/08 06:43:41;;;;;;;1.55;1.02;;;3.50;99.90;;;;;;5061427;28;20182;-76
2022/12/08 06:46:09;;;;;;;2.03;0.95;;;3.50;99.90;;;;;;5074444;28;20637;-77
2022/12/08 06:48:35;;;;;;;2.25;0.90;;;3.40;99.90;;;;;;5072812;28;20202;-77
2022/12/08 06:51:09;;;;;;;3.55;0.88;;;3.40;99.90;;;;;;5068849;28;20222;-77
2022/12/08 06:53:35;;;;;;;3.33;0.80;;;3.40;99.90;;;;;;5063082;28;20186;-77
2022/12/08 06:56:01;;;;;;;1.02;0.82;;;3.40;99.90;;;;;;5072575;28;20186;-77
2022/12/08 06:58:27;;;;;;;2.83;0.65;;;3.40;99.90;;;;;;5067348;28;20191;-77
2022/12/08 07:00:52;;;;;;;2.75;0.90;;;3.40;99.90;;;;;;5073382;28;20692;-77
2022/12/08 07:03:18;;;;;;;1.40;0.80;;;3.40;99.90;;;;;;5072277;28;20505;-77
2022/12/08 07:05:44;;;;;;;2.13;1.00;;;3.30;99.90;;;;;;5072884;28;20183;-75
2022/12/08 07:08:09;;;;;;;1.50;0.90;;;3.30;99.90;;;;;;5072071;28;20300;-79
2022/12/08 07:10:36;;;;;;;0.85;0.82;;;3.30;99.90;;;;;;5059945;28;20237;-82
2022/12/08 07:13:02;;;;;;;4.70;1.10;;;3.30;99.90;;;;;;5061038;28;20208;-75
2022/12/08 07:15:28;;;;;;;3.05;1.17;;;3.30;99.90;;;;;;5072139;28;20187;-74
2022/12/08 07:17:54;;;;;;;2.58;1.23;;;3.30;99.90;;;;;;5070478;28;20186;-74
2022/12/08 07:20:20;;;;;;;8.27;1.50;;;3.20;99.90;;;;;;5060378;28;20258;-74
2022/12/08 07:22:52;;;;;;;2.72;1.40;;;3.20;99.90;;;;;;5063165;28;20187;-75
2022/12/08 07:25:18;;;;;;;6.57;1.40;;;3.20;99.90;;;;;;5066221;28;20625;-74
2022/12/08 07:27:45;;;;;;;3.03;1.05;;;3.10;99.90;;;;;;5061696;28;20196;-75
2022/12/08 07:30:11;;;;;;;2.67;1.50;;;3.10;99.90;;;;;;5070348;28;20214;-76
2022/12/08 07:32:38;;;;;;;2.35;1.20;;;3.10;99.90;;;;;;5070995;28;20178;-74
2022/12/08 07:35:05;;;;;;;6.13;1.48;;;3.10;99.90;;;;;;5071172;28;20534;-76
2022/12/08 07:37:32;;;;;;;6.30;1.73;;;3.10;99.90;;;;;;5072911;28;20178;-75
2022/12/08 07:39:58;;;;;;;2.10;1.40;;;3.10;99.90;;;;;;5065549;28;20178;-75
2022/12/08 07:42:24;;;;;;;3.80;1.33;;;3.00;99.90;;;;;;5065923;28;20571;-75
2022/12/08 07:44:50;;;;;;;5.50;1.80;;;3.00;99.90;;;;;;5058630;28;20187;-75
2022/12/08 07:47:15;;;;;;;4.28;1.33;;;3.00;99.90;;;;;;5053149;28;20524;-75
2022/12/08 07:49:41;;;;;;;5.15;1.50;;;3.00;99.90;;;;;;5063498;28;20576;-75
2022/12/08 07:52:07;;;;;;;3.53;1.70;;;3.00;99.90;;;;;;5061284;28;20582;-74
2022/12/08 07:54:32;;;;;;;5.20;1.75;;;3.00;99.90;;;;;;5070430;28;20657;-76
2022/12/08 07:56:58;;;;;;;2.60;1.40;;;3.00;99.90;;;;;;5072983;28;20183;-76
2022/12/08 07:59:24;;;;;;;7.28;1.83;;;3.00;99.90;;;;;;5071811;28;20186;-75
2022/12/08 08:01:50;;;;;;;8.77;1.90;;;3.00;99.90;;;;;;5060218;28;20182;-76
2022/12/08 08:04:16;;;;;;;2.85;1.67;;;3.00;99.90;;;;;;5059812;28;20193;-76
2022/12/08 08:06:42;;;;;;;6.53;1.98;;;3.00;99.90;;;;;;5072987;28;20189;-75
2022/12/08 08:09:09;;;;;;;4.90;1.67;;;2.90;99.90;;;;;;5068392;28;20202;-76
2022/12/08 08:11:35;;;;;;;4.53;1.58;;;3.00;99.90;;;;;;5067297;28;20261;-76
2022/12/08 08:14:02;;;;;;;4.80;1.80;;;3.00;99.90;;;;;;5060579;28;20254;-79
2022/12/08 08:16:27;;;;;;;5.32;2.22;;;3.00;99.90;;;;;;5063688;28;20194;-76
2022/12/08 08:18:53;;;;;;;5.32;1.92;;;3.00;99.90;;;;;;5070495;28;20234;-76
2022/12/08 08:21:20;;;;;;;5.45;1.95;;;3.00;99.90;;;;;;5055420;28;20171;-79
2022/12/08 08:23:46;;;;;;;5.97;1.80;;;3.00;99.90;;;;;;5069968;28;20555;-77
2022/12/08 08:26:12;;;;;;;6.95;2.05;;;3.10;99.90;;;;;;5064287;28;20237;-76
2022/12/08 08:28:38;;;;;;;6.72;2.45;;;3.10;99.90;;;;;;5061054;28;20214;-77
2022/12/08 08:31:05;;;;;;;8.73;2.00;;;3.10;99.90;;;;;;5059590;28;20179;-76
2022/12/08 08:33:30;;;;;;;4.40;1.80;;;3.20;99.90;;;;;;5058960;28;20624;-76
2022/12/08 08:35:56;;;;;;;11.00;2.17;;;3.20;99.90;;;;;;5062486;28;20240;-76
2022/12/08 08:38:22;;;;;;;7.93;2.15;;;3.30;99.90;;;;;;5066350;28;20190;-83
2022/12/08 08:40:48;;;;;;;4.80;1.85;;;3.30;99.90;;;;;;5071550;28;20209;-76
2022/12/08 08:43:27;;;;;;;8.40;1.80;;;3.40;99.90;;;;;;5062819;28;20248;-80
2022/12/08 08:45:58;;;;;;;6.63;1.60;;;3.40;99.90;;;;;;5062160;28;20196;-77
2022/12/08 08:48:28;;;;;;;10.15;2.28;;;3.40;99.90;;;;;;5062624;28;20348;-76
2022/12/08 08:50:53;;;;;;;8.30;1.73;;;3.50;99.90;;;;;;5061545;28;20187;-80
2022/12/08 08:53:19;;;;;;;2.35;1.50;;;3.50;99.90;;;;;;5068235;28;20190;-76
2022/12/08 08:55:45;;;;;;;6.05;1.73;;;3.60;99.90;;;;;;5069915;28;20194;-77
2022/12/08 08:58:11;;;;;;;7.00;1.85;;;3.70;99.90;;;;;;5066378;28;20287;-75
2022/12/08 09:00:37;;;;;;;4.82;2.10;;;3.80;99.90;;;;;;5067935;28;20185;-76
2022/12/08 09:03:03;;;;;;;7.15;2.30;;;3.90;99.90;;;;;;5074174;28;20186;-78
2022/12/08 09:05:29;;;;;;;6.30;2.50;;;4.00;99.90;;;;;;5076005;28;20184;-79
2022/12/08 09:07:54;;;;;;;12.05;2.40;;;4.10;99.90;;;;;;5081924;28;20241;-75
2022/12/08 09:10:21;;;;;;;7.65;2.30;;;4.30;99.90;;;;;;5074079;28;20631;-79
2022/12/08 09:12:46;;;;;;;5.72;1.95;;;4.70;99.90;;;;;;5075260;28;20578;-76
2022/12/08 09:15:12;;;;;;;4.90;2.15;;;5.20;99.90;;;;;;5060784;28;20185;-75
2022/12/08 09:17:38;;;;;;;9.48;2.78;;;5.60;99.90;;;;;;5074711;28;20653;-75
2022/12/08 09:20:06;;;;;;;8.50;2.55;;;6.00;99.90;;;;;;5065818;28;20229;-75
2022/12/08 09:22:32;;;;;;;4.60;2.00;;;6.30;99.90;;;;;;5073906;28;20232;-76
2022/12/08 09:24:57;;;;;;;6.05;1.85;;;6.60;99.90;;;;;;5072941;28;20183;-75
2022/12/08 09:27:23;;;;;;;7.28;2.20;;;6.80;99.90;;;;;;5063917;28;20432;-83
2022/12/08 09:29:49;;;;;;;6.13;2.08;;;6.80;99.90;;;;;;5068938;28;20238;-75
2022/12/08 09:32:14;;;;;;;4.25;2.10;;;6.80;99.90;;;;;;5072122;28;20183;-74
2022/12/08 09:34:40;;;;;;;5.88;2.20;;;6.70;99.90;;;;;;5073212;28;20616;-75
2022/12/08 09:37:06;;;;;;;8.25;2.85;;;6.50;99.90;;;;;;5058273;28;20191;-76
2022/12/08 09:39:32;;;;;;;12.15;3.00;;;6.40;99.90;;;;;;5064034;28;20193;-76
2022/12/08 09:42:04;;;;;;;5.13;2.80;;;6.20;99.90;;;;;;5058672;28;22869;-77
2022/12/08 09:45:07;;;;;;;10.00;3.08;;;6.10;99.90;;;;;;5067059;28;20210;-75
2022/12/08 09:47:39;;;;;;;3.72;2.38;;;5.90;99.90;;;;;;5070768;28;20200;-75
2022/12/08 09:50:14;;;;;;;7.80;2.28;;;5.70;99.90;;;;;;5070691;28;20202;-75
2022/12/08 09:52:48;;;;;;;7.80;2.60;;;5.60;99.90;;;;;;5064559;28;20179;-75
2022/12/08 09:55:23;;;;;;;6.97;2.65;;;5.50;99.90;;;;;;5074525;28;20175;-75
2022/12/08 09:58:00;;;;;;;6.00;2.50;;;5.30;99.90;;;;;;5063159;28;20182;-76
2022/12/08 10:00:26;;;;;;;7.50;2.67;;;5.20;99.90;;;;;;5071698;28;20178;-77
2022/12/08 10:02:52;;;;;;;7.25;2.67;;;5.20;99.90;;;;;;5073161;28;20269;-77
2022/12/08 10:05:17;;;;;;;9.35;3.00;;;5.10;99.90;;;;;;5079914;28;20254;-77
2022/12/08 10:07:54;;;;;;;7.55;2.78;;;5.10;99.90;;;;;;5084721;28;20229;-76
2022/12/08 10:10:35;;;;;;;5.80;2.80;;;5.10;99.90;;;;;;5058536;28;20209;-76
2022/12/08 10:13:06;;;;;;;6.70;3.00;;;5.10;99.90;;;;;;5062420;28;20189;-80
2022/12/08 10:16:14;;;;;;;8.95;3.33;;;5.30;99.90;;;;;;5064997;28;20240;-79
2022/12/08 10:18:40;;;;;;;9.60;3.38;;;5.50;99.90;;;;;;5052876;28;20202;-77
2022/12/08 10:21:17;;;;;;;5.40;2.40;;;5.70;99.90;;;;;;5060320;28;20535;-75
2022/12/08 10:23:51;;;;;;;7.80;2.17;;;5.90;99.90;;;;;;5057906;28;20189;-75
2022/12/08 10:26:20;;;;;;;6.50;2.30;;;6.10;99.90;;;;;;5074270;28;20675;-75
2022/12/08 10:28:47;;;;;;;5.95;2.15;;;6.50;99.90;;;;;;5072750;28;20301;-76
2022/12/08 10:31:21;;;;;;;7.65;2.15;;;6.90;99.90;;;;;;5075081;28;20210;-76
2022/12/08 10:34:09;;;;;;;10.15;2.00;;;7.10;99.90;;;;;;5074034;28;20166;-79
2022/12/08 10:36:46;;;;;;;6.53;2.40;;;7.20;99.90;;;;;;5069777;28;20178;-81
2022/12/08 10:39:34;;;;;;;4.90;2.00;;;7.20;99.90;;;;;;5067279;28;20174;-79
2022/12/08 10:42:20;;;;;;;4.93;1.67;;;7.20;99.90;;;;;;5071977;28;20257;-77
2022/12/08 10:45:18;;;;;;;6.35;1.92;;;7.20;99.90;;;;;;5062458;28;20190;-75
2022/12/08 10:47:56;;;;;;;5.30;1.75;;;7.10;99.90;;;;;;5059883;28;20262;-76
2022/12/08 10:50:28;;;;;;;5.57;1.33;;;7.00;99.90;;;;;;5057277;28;20206;-75
2022/12/08 10:53:01;;;;;;;6.80;2.00;;;6.90;99.90;;;;;;5073265;28;20232;-77
2022/12/08 10:55:36;;;;;;;5.45;1.98;;;6.80;99.90;;;;;;5072763;28;20634;-76
2022/12/08 10:58:02;;;;;;;4.57;1.50;;;6.70;99.90;;;;;;5063854;28;20178;-77
2022/12/08 11:00:28;;;;;;;4.72;1.75;;;6.60;99.90;;;;;;5070647;28;20712;-78
2022/12/08 11:03:00;;;;;;;5.03;1.40;;;6.40;99.90;;;;;;5074436;28;20191;-77
2022/12/08 11:05:33;;;;;;;2.88;1.60;;;6.30;99.90;;;;;;5082175;28;20181;-78
2022/12/08 11:08:00;;;;;;;8.27;1.70;;;6.20;99.90;;;;;;5059270;28;20288;-78
2022/12/08 11:10:43;;;;;;;6.25;1.85;;;6.10;99.90;;;;;;5063889;28;20208;-78
2022/12/08 11:13:22;;;;;;;4.22;1.33;;;6.10;99.90;;;;;;5073539;28;20162;-84
2022/12/08 11:15:49;;;;;;;6.22;1.50;;;6.00;99.90;;;;;;5053814;28;20224;-77
2022/12/08 11:18:37;;;;;;;3.65;1.30;;;5.90;99.90;;;;;;5058530;28;20190;-79
2022/12/08 11:21:13;;;;;;;4.15;1.30;;;6.00;99.90;;;;;;5056886;28;20229;-77
2022/12/08 11:23:42;;;;;;;3.63;1.02;;;6.00;99.90;;;;;;5058388;28;20231;-77
2022/12/08 11:26:22;;;;;;;2.88;1.35;;;6.00;99.90;;;;;;5075532;28;20238;-78
2022/12/08 11:28:48;;;;;;;5.13;1.35;;;6.00;99.90;;;;;;5067768;28;20692;-79
2022/12/08 11:31:39;;;;;;;5.95;1.50;;;6.00;99.90;;;;;;5064189;28;20195;-77
2022/12/08 11:34:09;;;;;;;7.70;1.70;;;6.00;99.90;;;;;;5057090;28;20222;-78
2022/12/08 11:36:36;;;;;;;5.28;1.40;;;6.10;99.90;;;;;;5071998;28;20183;-76
2022/12/08 11:39:04;;;;;;;4.30;1.50;;;6.10;99.90;;;;;;5069218;28;22941;-77
2022/12/08 11:41:41;;;;;;;2.72;1.08;;;6.10;99.90;;;;;;5063772;28;20252;-77
2022/12/08 11:44:27;;;;;;;3.63;0.90;;;6.20;99.90;;;;;;5070568;28;20660;-76
2022/12/08 11:46:58;;;;;;;4.30;0.80;;;6.20;99.90;;;;;;5072742;28;20174;-77
2022/12/08 11:49:38;;;;;;;3.67;1.00;;;6.30;99.90;;;;;;5068554;28;20264;-77
2022/12/08 11:52:13;;;;;;;2.13;0.90;;;6.30;99.90;;;;;;5065957;28;20182;-75
2022/12/08 11:54:50;;;;;;;3.20;1.00;;;6.30;99.90;;;;;;5072427;28;20190;-75
2022/12/08 11:57:19;;;;;;;2.22;0.80;;;6.30;99.90;;;;;;5073341;28;20178;-76
2022/12/08 11:59:50;;;;;;;1.95;0.75;;;6.30;99.90;;;;;;5070842;28;20182;-77
2022/12/08 12:02:28;;;;;;;1.45;0.60;;;6.30;99.90;;;;;;5075296;28;20579;-76
2022/12/08 12:05:02;;;;;;;2.30;0.70;;;6.30;99.90;;;;;;5074255;28;20185;-76
2022/12/08 12:07:56;;;;;;;1.95;0.60;;;6.20;99.90;;;;;;5072944;28;20254;-78
2022/12/08 12:10:56;;;;;;;1.17;0.60;;;6.10;99.90;;;;;;5071419;28;20229;-75
2022/12/08 12:13:40;;;;;;;1.60;0.70;;;6.10;99.90;;;;;;5069973;28;20171;-77
2022/12/08 12:16:28;;;;;;;2.42;0.90;;;6.00;99.90;;;;;;5063370;28;20240;-79
2022/12/08 12:19:02;;;;;;;1.60;0.80;;;6.00;99.90;;;;;;5064482;28;20212;-79
2022/12/08 12:21:38;;;;;;;0.70;0.70;;;6.00;99.90;;;;;;5067204;28;20222;-77
2022/12/08 12:24:15;;;;;;;4.10;1.05;;;6.10;99.90;;;;;;5071474;28;20174;-77
2022/12/08 12:27:12;;;;;;;2.55;0.90;;;6.10;99.90;;;;;;5069299;28;20542;-78
2022/12/08 12:29:46;;;;;;;3.47;1.33;;;6.30;99.90;;;;;;5054506;28;20220;-76
2022/12/08 12:32:12;;;;;;;5.63;1.27;;;6.50;99.90;;;;;;5068093;28;20174;-77
2022/12/08 12:34:57;;;;;;;3.25;1.20;;;6.70;99.90;;;;;;5071874;28;20175;-79
2022/12/08 12:37:25;;;;;;;2.95;1.40;;;6.90;99.90;;;;;;5058635;28;20193;-77
2022/12/08 12:40:03;;;;;;;2.78;1.35;;;7.20;99.90;;;;;;5065034;28;20186;-80
2022/12/08 12:42:41;;;;;;;3.58;1.20;;;7.40;99.90;;;;;;5069816;28;20193;-77
2022/12/08 12:45:21;;;;;;;3.50;1.40;;;7.60;99.90;;;;;;5066662;28;20182;-76
2022/12/08 12:47:52;;;;;;;4.07;1.02;;;7.70;99.90;;;;;;5058754;28;20194;-77
2022/12/08 12:50:33;;;;;;;5.63;1.67;;;7.90;99.90;;;;;;5070647;28;20252;-77
2022/12/08 12:53:21;;;;;;;2.13;1.10;;;8.00;99.90;;;;;;5065597;28;20175;-78
2022/12/08 12:55:59;;;;;;;1.70;1.10;;;8.20;99.90;;;;;;5058849;28;20194;-84
2022/12/08 12:58:27;;;;;;;2.53;1.10;;;8.30;99.90;;;;;;5067048;28;20186;-77
2022/12/08 13:01:19;;;;;;;1.80;1.25;;;8.30;99.90;;;;;;5069912;28;20174;-76
2022/12/08 13:03:48;;;;;;;2.30;1.50;;;8.20;99.90;;;;;;5063318;28;20186;-77
2022/12/08 13:06:22;;;;;;;1.60;0.77;;;8.30;99.90;;;;;;5062480;28;20191;-80
2022/12/08 13:08:53;;;;;;;1.42;0.88;;;8.20;99.90;;;;;;5068345;28;20260;-77
2022/12/08 13:11:20;;;;;;;1.90;0.65;;;8.00;99.90;;;;;;5087873;28;20537;-77
2022/12/08 13:14:02;;;;;;;1.35;0.80;;;8.00;99.90;;;;;;5067983;28;20270;-77
2022/12/08 13:16:32;;;;;;;1.85;0.80;;;7.80;99.90;;;;;;5068936;28;20471;-77
2022/12/08 13:19:02;;;;;;;4.43;1.15;;;7.60;99.90;;;;;;5058444;28;20306;-77